createdAt,value
2019-02-17T00:02:07.771Z,100986.73
2019-02-17T00:04:35.880Z,100988.48
2019-02-17T00:07:03.981Z,100986.00
2019-02-17T00:09:33.155Z,100978.80
2019-02-17T00:12:01.521Z,100984.27
2019-02-17T00:14:29.662Z,100982.37
2019-02-17T00:16:57.698Z,100983.81
2019-02-17T00:19:25.821Z,100986.78
2019-02-17T00:21:53.880Z,100979.57
2019-02-17T00:24:21.970Z,100985.26
2019-02-17T00:26:50.001Z,100985.14
2019-02-17T00:29:19.612Z,100987.63
2019-02-17T00:31:47.772Z,100986.11
2019-02-17T00:34:15.852Z,100983.98
2019-02-17T00:36:43.876Z,100984.94
2019-02-17T00:39:12.268Z,100981.36
2019-02-17T00:41:40.390Z,100983.14
2019-02-17T00:44:08.439Z,100987.53
2019-02-17T00:46:36.548Z,100987.66
2019-02-17T00:49:04.626Z,100978.77
2019-02-17T00:51:33.166Z,100972.73
2019-02-17T00:54:01.533Z,100967.17
2019-02-17T00:56:29.578Z,100972.03
2019-02-17T00:58:57.630Z,100972.73
2019-02-17T01:01:26.786Z,100966.61
2019-02-17T01:03:54.953Z,100965.32
2019-02-17T01:06:22.993Z,100963.80
2019-02-17T01:08:51.051Z,100969.36
2019-02-17T01:11:19.077Z,100967.84
2019-02-17T01:13:47.165Z,100963.69
2019-02-17T01:16:15.385Z,100961.33
2019-02-17T01:18:43.470Z,100956.13
2019-02-17T01:21:12.216Z,100959.43
2019-02-17T01:23:41.361Z,100964.07
2019-02-17T01:26:09.421Z,100961.11
2019-02-17T01:28:37.470Z,100963.72
2019-02-17T01:31:05.500Z,100958.13
2019-02-17T01:33:34.997Z,100962.42
2019-02-17T01:36:03.058Z,100956.95
2019-02-17T01:38:31.330Z,100959.81
2019-02-17T01:40:59.365Z,100959.09
2019-02-17T01:43:27.783Z,100956.00
2019-02-17T01:45:55.874Z,100955.91
2019-02-17T01:48:23.947Z,100955.91
2019-02-17T01:50:52.081Z,100949.97
2019-02-17T01:53:20.162Z,100947.50
2019-02-17T01:55:48.208Z,100949.05
2019-02-17T01:58:17.652Z,100946.32
2019-02-17T02:00:45.728Z,100953.44
2019-02-17T02:03:13.786Z,100949.66
2019-02-17T02:05:41.851Z,100942.89
2019-02-17T02:08:10.203Z,100948.36
2019-02-17T02:10:38.301Z,100955.44
2019-02-17T02:13:06.346Z,100954.52
2019-02-17T02:15:34.543Z,100956.38
2019-02-17T02:18:03.412Z,100961.71
2019-02-17T02:20:31.586Z,100952.98
2019-02-17T02:22:59.642Z,100952.72
2019-02-17T02:25:27.684Z,100953.92
2019-02-17T02:27:56.023Z,100951.41
2019-02-17T02:30:24.420Z,100950.48
2019-02-17T02:32:53.087Z,100945.16
2019-02-17T02:35:21.158Z,100942.80
2019-02-17T02:37:49.533Z,100944.10
2019-02-17T02:40:17.633Z,100943.49
2019-02-17T02:42:45.627Z,100942.17
2019-02-17T02:45:13.712Z,100942.55
2019-02-17T02:47:41.774Z,100935.31
2019-02-17T02:50:11.134Z,100935.09
2019-02-17T02:52:39.260Z,100930.48
2019-02-17T02:55:07.878Z,100929.27
2019-02-17T02:57:35.949Z,100931.52
2019-02-17T03:00:06.319Z,100931.17
2019-02-17T03:02:34.779Z,100927.16
2019-02-17T03:05:04.405Z,100933.28
2019-02-17T03:07:32.904Z,100935.66
2019-02-17T03:10:02.511Z,100932.00
2019-02-17T03:12:30.940Z,100936.11
2019-02-17T03:14:59.045Z,100933.16
2019-02-17T03:17:27.343Z,100933.38
2019-02-17T03:19:55.411Z,100932.91
2019-02-17T03:22:23.485Z,100929.00
2019-02-17T03:24:51.559Z,100931.80
2019-02-17T03:27:19.637Z,100928.63
2019-02-17T03:29:48.112Z,100925.31
2019-02-17T03:32:17.381Z,100922.58
2019-02-17T03:34:46.838Z,100917.36
2019-02-17T03:37:15.027Z,100912.52
2019-02-17T03:39:43.507Z,100910.02
2019-02-17T03:42:13.370Z,100910.84
2019-02-17T03:44:41.675Z,100912.97
2019-02-17T03:47:09.752Z,100907.03
2019-02-17T03:49:38.101Z,100908.45
2019-02-17T03:52:06.237Z,100905.63
2019-02-17T03:54:36.404Z,100904.80
2019-02-17T03:57:04.486Z,100901.94
2019-02-17T03:59:33.530Z,100901.58
2019-02-17T04:02:01.610Z,100905.48
2019-02-17T04:04:29.788Z,100905.48
2019-02-17T04:06:57.829Z,100908.91
2019-02-17T04:09:27.810Z,100903.47
2019-02-17T04:11:56.253Z,100914.81
2019-02-17T04:14:24.330Z,100912.30
2019-02-17T04:16:52.481Z,100913.95
2019-02-17T04:19:20.626Z,100921.72
2019-02-17T04:21:50.729Z,100930.09
2019-02-17T04:24:18.811Z,100924.75
2019-02-17T04:26:47.254Z,100927.67
2019-02-17T04:29:15.322Z,100934.86
2019-02-17T04:31:43.395Z,100936.36
2019-02-17T04:34:12.563Z,100942.03
2019-02-17T04:36:40.769Z,100932.23
2019-02-17T04:39:08.854Z,100939.66
2019-02-17T04:41:37.020Z,100942.27
2019-02-17T04:44:05.090Z,100943.29
2019-02-17T04:46:34.272Z,100944.70
2019-02-17T04:49:02.500Z,100950.37
2019-02-17T04:51:30.835Z,100948.36
2019-02-17T04:53:59.398Z,100958.91
2019-02-17T04:56:28.832Z,100955.13
2019-02-17T04:58:56.907Z,100958.55
2019-02-17T05:01:27.125Z,100953.83
2019-02-17T05:03:55.214Z,100962.92
2019-02-17T05:06:23.274Z,100957.95
2019-02-17T05:08:51.340Z,100960.28
2019-02-17T05:11:19.636Z,100961.11
2019-02-17T05:13:47.722Z,100959.92
2019-02-17T05:16:16.175Z,100957.45
2019-02-17T05:18:44.232Z,100958.86
2019-02-17T05:21:12.657Z,100953.86
2019-02-17T05:23:40.759Z,100956.22
2019-02-17T05:26:08.828Z,100950.98
2019-02-17T05:28:39.014Z,100950.58
2019-02-17T05:31:07.390Z,100954.70
2019-02-17T05:33:35.564Z,100953.34
2019-02-17T05:36:03.639Z,100944.58
2019-02-17T05:38:31.788Z,100945.27
2019-02-17T05:40:59.969Z,100943.34
2019-02-17T05:43:29.090Z,100943.21
2019-02-17T05:45:57.625Z,100939.87
2019-02-17T05:48:25.683Z,100939.16
2019-02-17T05:50:53.934Z,100937.86
2019-02-17T05:53:22.037Z,100935.84
2019-02-17T05:55:50.149Z,100932.15
2019-02-17T05:58:18.542Z,100935.80
2019-02-17T06:00:46.867Z,100937.92
2019-02-17T06:03:15.134Z,100935.08
2019-02-17T06:05:43.228Z,100937.03
2019-02-17T06:08:11.298Z,100942.69
2019-02-17T06:10:39.723Z,100943.73
2019-02-17T06:13:08.184Z,100948.53
2019-02-17T06:15:36.336Z,100946.88
2019-02-17T06:18:06.076Z,100951.34
2019-02-17T06:20:34.171Z,100955.42
2019-02-17T06:23:02.243Z,100948.58
2019-02-17T06:25:30.346Z,100947.40
2019-02-17T06:27:58.415Z,100941.03
2019-02-17T06:30:26.484Z,100942.80
2019-02-17T06:32:54.914Z,100948.70
2019-02-17T06:35:23.082Z,100948.23
2019-02-17T06:37:51.142Z,100952.00
2019-02-17T06:40:20.340Z,100949.33
2019-02-17T06:42:48.428Z,100950.41
2019-02-17T06:45:19.537Z,100950.66
2019-02-17T06:47:46.797Z,100952.42
2019-02-17T06:50:14.893Z,100948.53
2019-02-17T06:52:43.042Z,100951.13
2019-02-17T06:55:24.508Z,100949.47
2019-02-17T06:57:52.569Z,100950.41
2019-02-17T07:00:40.310Z,100951.70
2019-02-17T07:03:08.699Z,100952.89
2019-02-17T07:05:59.431Z,100954.55
2019-02-17T07:08:28.645Z,100954.00
2019-02-17T07:10:56.722Z,100957.78
2019-02-17T07:13:25.988Z,100958.49
2019-02-17T07:15:55.762Z,100959.23
2019-02-17T07:18:23.864Z,100959.27
2019-02-17T07:20:52.194Z,100956.61
2019-02-17T07:23:20.354Z,100958.71
2019-02-17T07:25:48.733Z,100948.05
2019-02-17T07:28:16.920Z,100953.80
2019-02-17T07:30:45.371Z,100949.41
2019-02-17T07:33:13.925Z,100946.12
2019-02-17T07:35:42.426Z,100943.25
2019-02-17T07:38:10.536Z,100940.52
2019-02-17T07:40:40.402Z,100938.95
2019-02-17T07:43:08.451Z,100934.88
2019-02-17T07:45:36.795Z,100933.53
2019-02-17T07:48:04.838Z,100938.28
2019-02-17T07:50:33.398Z,100938.67
2019-02-17T07:53:01.451Z,100939.81
2019-02-17T07:55:31.080Z,100944.62
2019-02-17T07:57:59.265Z,100945.00
2019-02-17T08:00:27.306Z,100943.38
2019-02-17T08:02:55.482Z,100938.00
2019-02-17T08:05:24.285Z,100943.38
2019-02-17T08:07:52.678Z,100935.42
2019-02-17T08:10:20.755Z,100934.14
2019-02-17T08:12:50.061Z,100933.78
2019-02-17T08:15:18.115Z,100933.89
2019-02-17T08:17:46.522Z,100938.19
2019-02-17T08:20:14.577Z,100927.48
2019-02-17T08:22:42.778Z,100929.23
2019-02-17T08:25:21.416Z,100922.03
2019-02-17T08:27:41.928Z,100924.53
2019-02-17T08:30:12.587Z,100927.51
2019-02-17T08:32:40.811Z,100921.05
2019-02-17T08:35:09.218Z,100920.33
2019-02-17T08:37:57.040Z,100910.94
2019-02-17T08:40:26.374Z,100902.33
2019-02-17T08:42:54.476Z,100906.80
2019-02-17T08:45:24.264Z,100906.02
2019-02-17T08:47:52.681Z,100899.56
2019-02-17T08:50:20.833Z,100898.80
2019-02-17T08:52:50.750Z,100902.63
2019-02-17T08:55:18.796Z,100897.55
2019-02-17T08:57:48.070Z,100895.22
2019-02-17T09:00:16.198Z,100895.17
2019-02-17T09:02:44.560Z,100894.28
2019-02-17T09:05:12.597Z,100888.77
2019-02-17T09:07:40.674Z,100886.45
2019-02-17T09:10:10.342Z,100882.83
2019-02-17T09:12:39.104Z,100880.47
2019-02-17T09:15:09.134Z,100882.33
2019-02-17T09:17:37.636Z,100879.41
2019-02-17T09:20:08.019Z,100879.78
2019-02-17T09:22:37.374Z,100875.20
2019-02-17T09:25:07.371Z,100875.35
2019-02-17T09:27:35.480Z,100872.69
2019-02-17T09:30:05.966Z,100864.98
2019-02-17T09:32:34.043Z,100871.34
2019-02-17T09:35:03.192Z,100869.05
2019-02-17T09:37:32.024Z,100870.80
2019-02-17T09:40:00.668Z,100870.03
2019-02-17T09:42:29.366Z,100871.16
2019-02-17T09:44:57.828Z,100873.05
2019-02-17T09:47:26.042Z,100869.89
2019-02-17T09:49:54.358Z,100869.98
2019-02-17T09:52:22.583Z,100868.66
2019-02-17T09:54:50.732Z,100862.86
2019-02-17T09:57:18.905Z,100861.73
2019-02-17T09:59:47.060Z,100862.49
2019-02-17T10:02:15.432Z,100866.48
2019-02-17T10:04:43.621Z,100866.08
2019-02-17T10:07:11.691Z,100865.89
2019-02-17T10:09:39.879Z,100871.28
2019-02-17T10:12:08.030Z,100867.31
2019-02-17T10:14:36.078Z,100865.52
2019-02-17T10:17:04.251Z,100859.57
2019-02-17T10:19:32.640Z,100860.67
2019-02-17T10:22:01.295Z,100861.41
2019-02-17T10:24:29.556Z,100865.57
2019-02-17T10:26:57.659Z,100860.84
2019-02-17T10:29:25.885Z,100861.15
2019-02-17T10:31:53.999Z,100860.23
2019-02-17T10:34:22.175Z,100857.47
2019-02-17T10:36:50.249Z,100849.20
2019-02-17T10:39:18.757Z,100849.61
2019-02-17T10:41:46.830Z,100844.77
2019-02-17T10:44:15.016Z,100848.58
2019-02-17T10:46:43.335Z,100844.84
2019-02-17T10:49:11.610Z,100841.91
2019-02-17T10:51:39.909Z,100834.41
2019-02-17T10:54:08.858Z,100833.59
2019-02-17T10:56:37.005Z,100830.59
2019-02-17T10:59:05.099Z,100826.94
2019-02-17T11:01:33.273Z,100824.67
2019-02-17T11:04:09.627Z,100821.30
2019-02-17T11:06:37.830Z,100818.95
2019-02-17T11:09:24.728Z,100809.82
2019-02-17T11:11:52.830Z,100804.41
2019-02-17T11:14:21.086Z,100797.02
2019-02-17T11:16:50.553Z,100795.02
2019-02-17T11:19:18.740Z,100786.96
2019-02-17T11:21:46.970Z,100783.13
2019-02-17T11:24:15.095Z,100778.77
2019-02-17T11:26:45.966Z,100777.97
2019-02-17T11:29:14.304Z,100772.23
2019-02-17T11:31:42.387Z,100767.59
2019-02-17T11:34:11.684Z,100762.16
2019-02-17T11:36:40.146Z,100760.80
2019-02-17T11:39:17.722Z,100750.45
2019-02-17T11:41:45.775Z,100751.55
2019-02-17T11:44:14.478Z,100746.84
2019-02-17T11:46:42.769Z,100749.01
2019-02-17T11:49:11.135Z,100736.85
2019-02-17T11:51:39.219Z,100732.39
2019-02-17T11:54:07.793Z,100725.38
2019-02-17T11:56:36.197Z,100722.16
2019-02-17T11:59:04.341Z,100719.75
2019-02-17T12:01:33.740Z,100721.78
2019-02-17T12:04:01.966Z,100717.62
2019-02-17T12:06:30.383Z,100708.84
2019-02-17T12:08:58.447Z,100705.14
2019-02-17T12:11:26.502Z,100701.45
2019-02-17T12:13:54.685Z,100700.00
2019-02-17T12:16:22.807Z,100697.14
2019-02-17T12:18:51.311Z,100695.82
2019-02-17T12:21:35.670Z,100697.06
2019-02-17T12:24:11.571Z,100691.11
2019-02-17T12:26:58.551Z,100682.52
2019-02-17T12:29:32.719Z,100677.63
2019-02-17T12:32:00.780Z,100672.25
2019-02-17T12:34:28.925Z,100671.35
2019-02-17T12:36:56.995Z,100670.16
2019-02-17T12:39:25.422Z,100669.42
2019-02-17T12:41:53.854Z,100665.94
2019-02-17T12:44:22.121Z,100663.33
2019-02-17T12:46:50.165Z,100658.65
2019-02-17T12:49:18.311Z,100658.02
2019-02-17T12:51:46.493Z,100645.36
2019-02-17T12:54:14.765Z,100650.08
2019-02-17T12:56:42.802Z,100649.91
2019-02-17T12:59:10.983Z,100645.02
2019-02-17T13:01:39.741Z,100643.47
2019-02-17T13:04:09.326Z,100643.70
2019-02-17T13:06:37.423Z,100636.64
2019-02-17T13:09:07.089Z,100638.81
2019-02-17T13:11:35.138Z,100624.43
2019-02-17T13:14:03.323Z,100626.86
2019-02-17T13:16:31.412Z,100621.84
2019-02-17T13:18:59.785Z,100627.77
2019-02-17T13:21:27.887Z,100617.88
2019-02-17T13:23:56.096Z,100618.34
2019-02-17T13:26:24.392Z,100611.63
2019-02-17T13:28:52.436Z,100613.03
2019-02-17T13:31:21.603Z,100609.00
2019-02-17T13:33:49.904Z,100604.47
2019-02-17T13:36:19.326Z,100598.83
2019-02-17T13:38:48.854Z,100593.37
2019-02-17T13:41:17.028Z,100590.92
2019-02-17T13:43:45.207Z,100589.45
2019-02-17T13:46:13.465Z,100586.16
2019-02-17T13:48:41.529Z,100584.22
2019-02-17T13:51:09.962Z,100581.37
2019-02-17T13:53:39.835Z,100582.84
2019-02-17T13:56:08.140Z,100573.75
2019-02-17T13:58:37.389Z,100570.03
2019-02-17T14:01:06.646Z,100575.34
2019-02-17T14:03:34.711Z,100574.08
2019-02-17T14:06:03.350Z,100570.02
2019-02-17T14:08:33.310Z,100567.80
2019-02-17T14:11:02.727Z,100566.48
2019-02-17T14:13:30.789Z,100557.41
2019-02-17T14:15:59.539Z,100556.61
2019-02-17T14:18:28.018Z,100559.20
2019-02-17T14:20:56.195Z,100557.84
2019-02-17T14:23:24.649Z,100548.84
2019-02-17T14:25:52.694Z,100552.14
2019-02-17T14:28:20.975Z,100549.65
2019-02-17T14:30:49.200Z,100547.82
2019-02-17T14:33:17.323Z,100542.41
2019-02-17T14:35:45.374Z,100546.21
2019-02-17T14:38:14.035Z,100543.60
2019-02-17T14:40:43.561Z,100544.78
2019-02-17T14:43:11.628Z,100545.97
2019-02-17T14:45:39.984Z,100537.32
2019-02-17T14:48:11.388Z,100533.31
2019-02-17T14:50:39.669Z,100535.72
2019-02-17T14:53:07.699Z,100531.75
2019-02-17T14:55:35.816Z,100537.52
2019-02-17T14:58:05.622Z,100535.55
2019-02-17T15:00:34.007Z,100534.27
2019-02-17T15:03:02.231Z,100532.48
2019-02-17T15:05:30.398Z,100533.26
2019-02-17T15:07:58.742Z,100534.48
2019-02-17T15:10:27.064Z,100535.73
2019-02-17T15:12:55.140Z,100531.41
2019-02-17T15:15:23.193Z,100531.27
2019-02-17T15:17:51.616Z,100525.92
2019-02-17T15:20:19.705Z,100524.45
2019-02-17T15:22:49.311Z,100525.48
2019-02-17T15:25:17.455Z,100524.41
2019-02-17T15:27:45.535Z,100525.70
2019-02-17T15:30:13.816Z,100517.72
2019-02-17T15:32:42.051Z,100520.58
2019-02-17T15:35:10.460Z,100520.25
2019-02-17T15:37:38.839Z,100515.66
2019-02-17T15:40:08.061Z,100513.77
2019-02-17T15:42:36.574Z,100512.68
2019-02-17T15:45:06.149Z,100510.16
2019-02-17T15:47:35.124Z,100509.59
2019-02-17T15:50:04.045Z,100504.62
2019-02-17T15:52:32.131Z,100504.53
2019-02-17T15:55:00.402Z,100504.70
2019-02-17T15:57:28.629Z,100497.52
2019-02-17T15:59:56.683Z,100506.08
2019-02-17T16:02:24.799Z,100501.42
2019-02-17T16:04:52.879Z,100496.42
2019-02-17T16:07:21.970Z,100498.50
2019-02-17T16:09:50.374Z,100494.36
2019-02-17T16:12:18.460Z,100489.11
2019-02-17T16:14:46.926Z,100489.86
2019-02-17T16:17:15.007Z,100488.69
2019-02-17T16:19:44.424Z,100492.59
2019-02-17T16:22:12.545Z,100487.09
2019-02-17T16:24:40.629Z,100494.70
2019-02-17T16:27:08.749Z,100491.00
2019-02-17T16:29:37.133Z,100488.34
2019-02-17T16:32:05.513Z,100486.45
2019-02-17T16:34:38.461Z,100493.89
2019-02-17T16:37:06.116Z,100496.68
2019-02-17T16:39:36.516Z,100494.37
2019-02-17T16:42:04.602Z,100503.53
2019-02-17T16:44:32.635Z,100493.08
2019-02-17T16:47:02.116Z,100497.08
2019-02-17T16:49:30.174Z,100490.03
2019-02-17T16:51:58.271Z,100497.40
2019-02-17T16:54:26.368Z,100499.98
2019-02-17T16:56:54.466Z,100499.75
2019-02-17T16:59:22.517Z,100505.73
2019-02-17T17:01:51.832Z,100501.72
2019-02-17T17:04:20.525Z,100505.20
2019-02-17T17:06:48.550Z,100507.27
2019-02-17T17:09:17.077Z,100511.97
2019-02-17T17:11:45.220Z,100506.88
2019-02-17T17:14:13.495Z,100518.70
2019-02-17T17:16:41.743Z,100514.19
2019-02-17T17:19:10.052Z,100511.00
2019-02-17T17:21:38.267Z,100514.42
2019-02-17T17:24:06.411Z,100514.36
2019-02-17T17:26:34.761Z,100516.17
2019-02-17T17:29:03.065Z,100518.25
2019-02-17T17:31:31.380Z,100521.17
2019-02-17T17:34:00.762Z,100520.56
2019-02-17T17:36:29.302Z,100516.78
2019-02-17T17:38:58.414Z,100520.50
2019-02-17T17:41:31.341Z,100521.66
2019-02-17T17:43:59.813Z,100520.45
2019-02-17T17:46:27.940Z,100524.87
2019-02-17T17:48:56.059Z,100516.76
2019-02-17T17:51:24.259Z,100515.99
2019-02-17T17:53:54.951Z,100525.37
2019-02-17T17:56:23.148Z,100517.48
2019-02-17T17:58:51.686Z,100519.84
2019-02-17T18:01:19.953Z,100525.11
2019-02-17T18:03:48.058Z,100517.73
2019-02-17T18:06:16.576Z,100520.92
2019-02-17T18:08:44.927Z,100525.17
2019-02-17T18:11:13.132Z,100533.41
2019-02-17T18:13:41.508Z,100526.44
2019-02-17T18:16:11.877Z,100535.13
2019-02-17T18:18:40.344Z,100533.86
2019-02-17T18:21:09.412Z,100539.02
2019-02-17T18:23:40.396Z,100542.79
2019-02-17T18:26:10.154Z,100542.28
2019-02-17T18:28:38.420Z,100546.69
2019-02-17T18:31:06.465Z,100540.15
2019-02-17T18:33:35.046Z,100539.09
2019-02-17T18:36:04.577Z,100544.94
2019-02-17T18:38:33.128Z,100545.45
2019-02-17T18:41:01.315Z,100549.66
2019-02-17T18:43:29.614Z,100552.17
2019-02-17T18:45:57.764Z,100561.41
2019-02-17T18:48:25.871Z,100567.04
2019-02-17T18:50:59.152Z,100570.19
2019-02-17T18:53:26.089Z,100573.33
2019-02-17T18:55:54.182Z,100565.80
2019-02-17T18:58:22.298Z,100571.27
2019-02-17T19:00:50.721Z,100572.97
2019-02-17T19:03:19.966Z,100571.05
2019-02-17T19:05:48.438Z,100573.55
2019-02-17T19:08:16.848Z,100574.59
2019-02-17T19:10:44.891Z,100570.33
2019-02-17T19:13:13.080Z,100572.34
2019-02-17T19:15:41.167Z,100574.66
2019-02-17T19:18:09.951Z,100575.17
2019-02-17T19:20:38.500Z,100575.52
2019-02-17T19:23:06.833Z,100576.19
2019-02-17T19:25:36.206Z,100575.71
2019-02-17T19:28:04.365Z,100573.92
2019-02-17T19:30:34.409Z,100578.20
2019-02-17T19:33:02.557Z,100573.91
2019-02-17T19:35:39.418Z,100576.37
2019-02-17T19:38:01.020Z,100580.61
2019-02-17T19:40:29.446Z,100576.84
2019-02-17T19:42:57.616Z,100579.15
2019-02-17T19:45:26.133Z,100581.41
2019-02-17T19:47:54.225Z,100585.66
2019-02-17T19:50:22.626Z,100582.54
2019-02-17T19:52:50.783Z,100582.69
2019-02-17T19:55:19.096Z,100585.45
2019-02-17T19:57:47.373Z,100584.45
2019-02-17T20:00:15.788Z,100579.52
2019-02-17T20:03:04.587Z,100578.38
2019-02-17T20:05:35.610Z,100582.75
2019-02-17T20:08:04.125Z,100586.82
2019-02-17T20:10:32.443Z,100584.17
2019-02-17T20:13:01.249Z,100583.81
2019-02-17T20:15:31.562Z,100589.05
2019-02-17T20:17:59.626Z,100590.17
2019-02-17T20:20:29.464Z,100598.48
2019-02-17T20:22:57.874Z,100596.45
2019-02-17T20:25:27.232Z,100600.84
2019-02-17T20:27:55.480Z,100604.27
2019-02-17T20:30:25.297Z,100605.55
2019-02-17T20:32:53.517Z,100610.75
2019-02-17T20:35:21.799Z,100609.42
2019-02-17T20:37:50.004Z,100606.59
2019-02-17T20:40:18.428Z,100608.84
2019-02-17T20:42:46.563Z,100608.19
2019-02-17T20:45:14.957Z,100606.67
2019-02-17T20:47:43.513Z,100612.23
2019-02-17T20:50:11.838Z,100608.27
2019-02-17T20:52:40.033Z,100610.05
2019-02-17T20:55:08.233Z,100612.13
2019-02-17T20:57:38.435Z,100609.95
2019-02-17T21:00:07.652Z,100609.78
2019-02-17T21:02:36.135Z,100614.36
2019-02-17T21:05:04.786Z,100611.05
2019-02-17T21:07:32.980Z,100606.45
2019-02-17T21:10:01.210Z,100602.05
2019-02-17T21:12:29.865Z,100609.56
2019-02-17T21:14:58.046Z,100599.41
2019-02-17T21:17:26.355Z,100608.70
2019-02-17T21:19:56.265Z,100607.21
2019-02-17T21:22:24.641Z,100604.75
2019-02-17T21:24:52.721Z,100606.02
2019-02-17T21:27:21.322Z,100611.69
2019-02-17T21:29:49.495Z,100612.16
2019-02-17T21:32:17.565Z,100614.23
2019-02-17T21:34:46.125Z,100611.92
2019-02-17T21:37:14.517Z,100606.84
2019-02-17T21:39:42.949Z,100610.56
2019-02-17T21:42:11.092Z,100610.88
2019-02-17T21:44:39.337Z,100613.28
2019-02-17T21:47:07.496Z,100610.82
2019-02-17T21:49:36.075Z,100613.26
2019-02-17T21:52:04.265Z,100610.92
2019-02-17T21:54:32.410Z,100616.80
2019-02-17T21:57:02.624Z,100614.28
2019-02-17T21:59:31.904Z,100614.58
2019-02-17T22:01:59.982Z,100612.40
2019-02-17T22:04:28.586Z,100617.12
2019-02-17T22:06:58.493Z,100609.70
2019-02-17T22:09:26.646Z,100605.05
2019-02-17T22:11:55.034Z,100603.02
2019-02-17T22:14:24.408Z,100600.98
2019-02-17T22:16:52.792Z,100592.13
2019-02-17T22:19:21.289Z,100601.67
2019-02-17T22:21:49.332Z,100597.23
2019-02-17T22:24:17.376Z,100594.22
2019-02-17T22:26:47.303Z,100593.74
2019-02-17T22:29:15.383Z,100594.98
2019-02-17T22:31:43.584Z,100599.20
2019-02-17T22:34:11.995Z,100590.66
2019-02-17T22:36:43.690Z,100592.76
2019-02-17T22:39:11.246Z,100591.27
2019-02-17T22:41:40.283Z,100588.44
2019-02-17T22:44:09.545Z,100593.48
2019-02-17T22:46:37.744Z,100591.62
2019-02-17T22:49:07.483Z,100594.05
2019-02-17T22:51:35.624Z,100595.50
2019-02-17T22:54:03.708Z,100595.63
2019-02-17T22:56:31.789Z,100599.02
2019-02-17T22:58:59.840Z,100597.97
2019-02-17T23:01:31.105Z,100608.23
2019-02-17T23:03:59.259Z,100599.87
2019-02-17T23:06:29.151Z,100602.42
2019-02-17T23:08:57.301Z,100613.42
2019-02-17T23:11:25.392Z,100615.51
2019-02-17T23:13:53.805Z,100608.27
2019-02-17T23:16:21.868Z,100614.88
2019-02-17T23:18:50.230Z,100612.07
2019-02-17T23:21:19.911Z,100614.98
2019-02-17T23:23:47.974Z,100611.47
2019-02-17T23:26:16.056Z,100605.01
2019-02-17T23:28:44.786Z,100608.51
2019-02-17T23:31:13.183Z,100615.80
2019-02-17T23:33:41.302Z,100612.16
2019-02-17T23:36:09.400Z,100613.06
2019-02-17T23:38:37.495Z,100608.59
2019-02-17T23:41:07.304Z,100616.70
2019-02-17T23:43:37.511Z,100611.75
2019-02-17T23:46:06.606Z,100615.12
2019-02-17T23:48:34.694Z,100615.05
2019-02-17T23:51:02.895Z,100620.17
2019-02-17T23:53:31.295Z,100617.17
2019-02-17T23:55:59.487Z,100621.14
2019-02-17T23:58:27.925Z,100617.63
